Time;durP1;ratioP1;P1;durP2;ratioP2;P2;SDS_P1;SDS_P2;PMS_P1;PMS_P2;Temp;Humidity;BMP_temperature;BMP_pressure;BME280_temperature;BME280_humidity;BME280_pressure;Samples;Min_cycle;Max_cycle;Signal;HPM_P1;HPM_P2
2024/03/20 00:01:39;;;;;;;11.45;6.22;;;;;;;5.26;100.00;97554.84;5060224;28;20070;-63
2024/03/20 00:04:05;;;;;;;11.63;6.75;;;;;;;5.24;100.00;97556.91;5058615;28;20047;-61
2024/03/20 00:06:33;;;;;;;9.18;5.95;;;;;;;5.21;100.00;97557.34;5050249;28;20048;-62
2024/03/20 00:09:02;;;;;;;12.05;6.85;;;;;;;5.14;100.00;97554.69;5061301;28;20037;-61
2024/03/20 00:11:28;;;;;;;11.35;6.57;;;;;;;5.17;100.00;97559.59;5061001;28;20082;-63
2024/03/20 00:13:54;;;;;;;11.35;7.65;;;;;;;5.19;100.00;97557.53;5065217;28;20047;-62
2024/03/20 00:16:20;;;;;;;12.02;7.85;;;;;;;5.13;100.00;97561.09;5056720;28;20056;-64
2024/03/20 00:18:46;;;;;;;11.57;7.60;;;;;;;5.04;100.00;97555.13;5054798;28;20119;-62
2024/03/20 00:21:12;;;;;;;14.93;8.27;;;;;;;5.02;100.00;97564.41;5055856;28;20032;-63
2024/03/20 00:23:37;;;;;;;15.60;9.23;;;;;;;4.94;100.00;97562.81;5055605;28;20032;-63
2024/03/20 00:26:03;;;;;;;14.85;7.80;;;;;;;4.94;100.00;97560.94;5061102;28;20503;-61
2024/03/20 00:28:28;;;;;;;11.02;7.60;;;;;;;5.00;100.00;97567.31;5057796;28;20049;-62
2024/03/20 00:30:54;;;;;;;15.65;7.05;;;;;;;5.00;100.00;97561.94;5056724;28;20045;-63
2024/03/20 00:33:19;;;;;;;15.40;7.20;;;;;;;4.86;100.00;97550.41;5055778;28;20048;-64
2024/03/20 00:35:45;;;;;;;9.98;6.38;;;;;;;4.91;100.00;97558.66;5051785;28;20036;-62
2024/03/20 00:38:11;;;;;;;9.65;6.75;;;;;;;4.95;100.00;97553.72;5064255;28;20619;-62
2024/03/20 00:40:36;;;;;;;11.38;7.25;;;;;;;5.01;100.00;97557.41;5053084;28;20040;-63
2024/03/20 00:43:02;;;;;;;11.05;6.88;;;;;;;5.02;100.00;97549.13;5056682;28;20514;-63
2024/03/20 00:45:28;;;;;;;11.32;7.05;;;;;;;5.03;100.00;97553.47;5057760;28;20411;-62
2024/03/20 00:47:53;;;;;;;14.02;8.18;;;;;;;5.08;100.00;97552.81;5055262;28;20119;-62
2024/03/20 00:50:19;;;;;;;11.15;6.85;;;;;;;4.90;100.00;97542.78;5050995;28;20485;-62
2024/03/20 00:52:45;;;;;;;12.70;8.00;;;;;;;4.87;100.00;97544.00;5065625;28;20040;-63
2024/03/20 00:55:11;;;;;;;13.35;8.35;;;;;;;4.77;100.00;97544.47;5054994;28;20036;-63
2024/03/20 00:57:37;;;;;;;12.40;6.93;;;;;;;4.81;100.00;97547.56;5063808;28;20537;-63
2024/03/20 01:00:04;;;;;;;11.27;7.38;;;;;;;4.80;100.00;97535.97;5057618;28;20045;-64
2024/03/20 01:02:31;;;;;;;12.57;7.57;;;;;;;4.77;100.00;97547.16;5059618;28;20040;-63
2024/03/20 01:04:59;;;;;;;12.05;7.45;;;;;;;4.81;100.00;97544.88;5058875;28;20048;-64
2024/03/20 01:07:25;;;;;;;13.25;7.20;;;;;;;4.84;100.00;97535.56;5039997;28;20043;-63
2024/03/20 01:09:51;;;;;;;12.00;6.82;;;;;;;4.84;100.00;97538.25;5063958;28;20067;-63
2024/03/20 01:12:17;;;;;;;12.63;7.32;;;;;;;4.78;100.00;97530.03;5055813;28;20086;-63
2024/03/20 01:14:44;;;;;;;11.57;6.80;;;;;;;4.84;100.00;97532.88;5053355;28;20040;-63
2024/03/20 01:17:15;;;;;;;11.40;6.88;;;;;;;4.82;100.00;97533.09;5059966;28;20048;-62
2024/03/20 01:19:44;;;;;;;14.32;7.47;;;;;;;4.85;100.00;97526.47;5059376;28;20044;-62
2024/03/20 01:22:11;;;;;;;14.30;7.13;;;;;;;4.75;100.00;97522.38;5054826;28;20060;-62
2024/03/20 01:24:37;;;;;;;11.52;7.55;;;;;;;4.70;100.00;97514.16;5054779;28;20048;-62
2024/03/20 01:27:03;;;;;;;11.73;6.78;;;;;;;4.64;100.00;97517.69;5052622;28;20049;-63
2024/03/20 01:29:28;;;;;;;10.57;6.93;;;;;;;4.73;100.00;97520.94;5060029;28;20055;-63
2024/03/20 01:31:54;;;;;;;11.75;6.68;;;;;;;4.59;100.00;97517.47;5056672;28;20060;-62
2024/03/20 01:34:20;;;;;;;11.68;6.40;;;;;;;4.53;100.00;97514.59;5054835;28;20047;-62
2024/03/20 01:36:45;;;;;;;11.13;6.85;;;;;;;4.54;100.00;97507.38;5053997;28;20045;-63
2024/03/20 01:39:11;;;;;;;10.13;6.32;;;;;;;4.53;100.00;97514.59;5059439;28;20040;-64
2024/03/20 01:41:37;;;;;;;12.38;6.97;;;;;;;4.58;100.00;97511.28;5056582;28;20043;-64
2024/03/20 01:44:02;;;;;;;9.48;5.97;;;;;;;4.63;100.00;97506.13;5056669;28;20052;-62
2024/03/20 01:46:33;;;;;;;10.10;6.60;;;;;;;4.58;100.00;97505.09;5053469;28;20040;-61
2024/03/20 01:49:00;;;;;;;10.60;6.38;;;;;;;4.64;100.00;97506.97;5061975;28;20633;-62
2024/03/20 01:51:27;;;;;;;10.13;5.63;;;;;;;4.64;100.00;97504.28;5053216;28;20065;-63
2024/03/20 01:53:57;;;;;;;13.73;6.53;;;;;;;4.57;100.00;97503.47;5061064;28;20496;-62
2024/03/20 01:56:23;;;;;;;9.90;6.75;;;;;;;4.57;100.00;97506.13;5049788;28;20668;-63
2024/03/20 01:58:49;;;;;;;10.73;5.80;;;;;;;4.62;100.00;97499.13;5052502;28;20056;-62
2024/03/20 02:01:16;;;;;;;9.82;6.50;;;;;;;4.53;100.00;97498.50;5060950;28;20033;-62
2024/03/20 02:03:43;;;;;;;10.85;5.95;;;;;;;4.58;100.00;97495.22;5062644;28;20094;-62
2024/03/20 02:06:28;;;;;;;10.10;6.25;;;;;;;4.62;100.00;97496.44;5050166;28;20071;-62
2024/03/20 02:08:56;;;;;;;11.98;6.60;;;;;;;4.66;100.00;97497.66;5058825;28;20041;-63
2024/03/20 02:11:24;;;;;;;11.45;7.20;;;;;;;4.72;100.00;97504.03;5053810;28;20091;-63
2024/03/20 02:13:55;;;;;;;10.90;7.13;;;;;;;4.65;100.00;97500.56;5059999;28;20047;-62
2024/03/20 02:16:21;;;;;;;;;;;;;;;4.60;100.00;97495.81;5052224;28;20538;-61
2024/03/20 02:18:48;;;;;;;10.57;6.18;;;;;;;4.51;100.00;97495.22;5052810;28;20118;-62
2024/03/20 02:21:15;;;;;;;11.85;7.22;;;;;;;4.47;100.00;97499.34;5031252;28;20040;-63
2024/03/20 02:23:41;;;;;;;9.75;6.30;;;;;;;4.47;100.00;97499.34;5048574;28;20052;-62
2024/03/20 02:26:08;;;;;;;10.25;6.50;;;;;;;4.43;100.00;97498.13;5057090;28;20051;-63
2024/03/20 02:28:35;;;;;;;10.20;6.65;;;;;;;4.39;100.00;97504.94;5049296;28;20174;-63
2024/03/20 02:31:02;;;;;;;10.80;6.63;;;;;;;4.42;100.00;97505.34;5054761;28;20040;-63
2024/03/20 02:33:28;;;;;;;11.02;6.18;;;;;;;4.38;100.00;97497.91;5053907;28;20045;-63
2024/03/20 02:35:54;;;;;;;9.15;5.60;;;;;;;4.42;100.00;97504.50;5054732;28;20051;-63
2024/03/20 02:38:21;;;;;;;9.88;5.50;;;;;;;4.44;100.00;97499.75;5057668;28;20040;-63
2024/03/20 02:40:46;;;;;;;9.85;5.60;;;;;;;4.48;100.00;97498.31;5046448;28;20040;-63
2024/03/20 02:43:12;;;;;;;8.75;5.32;;;;;;;4.42;100.00;97501.81;5053979;28;20055;-64
2024/03/20 02:45:38;;;;;;;9.88;5.40;;;;;;;4.46;100.00;97499.56;5041672;28;20055;-63
2024/03/20 02:48:04;;;;;;;9.10;5.80;;;;;;;4.42;100.00;97489.25;5046913;28;20048;-62
2024/03/20 02:50:30;;;;;;;10.15;5.03;;;;;;;4.51;100.00;97492.53;5057035;28;20044;-63
2024/03/20 02:53:02;;;;;;;10.40;6.45;;;;;;;4.57;100.00;97487.38;5060516;28;20048;-62
2024/03/20 02:55:28;;;;;;;7.32;5.28;;;;;;;4.59;100.00;97496.00;5059227;28;20049;-62
2024/03/20 02:57:54;;;;;;;7.82;5.13;;;;;;;4.62;100.00;97495.59;5050420;28;20056;-62
2024/03/20 03:00:19;;;;;;;8.93;5.38;;;;;;;4.65;100.00;97493.31;5048394;28;20036;-62
2024/03/20 03:02:45;;;;;;;12.10;5.05;;;;;;;4.71;100.00;97486.28;5049568;28;20040;-63
2024/03/20 03:05:11;;;;;;;9.38;5.30;;;;;;;4.80;100.00;97487.69;5048855;28;20582;-63
2024/03/20 03:07:37;;;;;;;9.00;5.03;;;;;;;4.76;100.00;97489.16;5046515;28;20037;-64
2024/03/20 03:10:05;;;;;;;11.18;6.15;;;;;;;4.72;100.00;97501.34;5053569;28;20726;-64
2024/03/20 03:12:31;;;;;;;8.20;5.10;;;;;;;4.78;100.00;97488.94;5048952;28;20047;-64
2024/03/20 03:14:57;;;;;;;8.30;5.35;;;;;;;4.69;100.00;97493.72;5049802;28;20040;-63
2024/03/20 03:17:22;;;;;;;8.48;4.82;;;;;;;4.68;100.00;97494.75;5054273;28;20040;-63
2024/03/20 03:19:48;;;;;;;8.25;5.25;;;;;;;4.68;100.00;97497.44;5060882;28;20452;-61
2024/03/20 03:22:13;;;;;;;10.10;5.65;;;;;;;4.69;100.00;97501.78;5046200;28;20043;-62
2024/03/20 03:24:39;;;;;;;8.15;5.22;;;;;;;4.68;100.00;97505.47;5043898;28;20044;-64
2024/03/20 03:27:04;;;;;;;7.90;5.15;;;;;;;4.73;100.00;97497.63;5049950;28;20728;-63
2024/03/20 03:29:30;;;;;;;11.13;5.60;;;;;;;4.79;100.00;97498.66;5055798;28;20048;-61
2024/03/20 03:31:55;;;;;;;10.07;5.72;;;;;;;4.80;100.00;97498.44;5055471;28;20077;-62
2024/03/20 03:34:24;;;;;;;9.75;5.63;;;;;;;4.74;100.00;97499.28;5048866;28;20509;-63
2024/03/20 03:36:50;;;;;;;8.50;5.72;;;;;;;4.78;100.00;97497.00;5050085;28;20044;-64
2024/03/20 03:39:15;;;;;;;10.30;5.95;;;;;;;4.85;100.00;97497.81;5052774;28;20056;-63
2024/03/20 03:41:41;;;;;;;11.43;6.70;;;;;;;4.90;100.00;97502.53;5053157;28;20067;-64
2024/03/20 03:44:06;;;;;;;10.85;6.93;;;;;;;4.85;100.00;97502.34;5063563;28;20067;-63
2024/03/20 03:46:32;;;;;;;12.73;6.78;;;;;;;4.84;100.00;97503.38;5050287;28;20045;-62
2024/03/20 03:48:58;;;;;;;12.35;8.05;;;;;;;4.84;100.00;97506.06;5066296;28;20039;-62
2024/03/20 03:51:24;;;;;;;13.68;7.82;;;;;;;4.76;100.00;97509.81;5046969;28;20499;-63
2024/03/20 03:53:49;;;;;;;11.00;7.22;;;;;;;4.67;100.00;97503.84;5049745;28;20057;-62
2024/03/20 03:56:15;;;;;;;12.32;7.63;;;;;;;4.58;100.00;97502.41;5049733;28;20045;-62
2024/03/20 03:58:40;;;;;;;11.52;7.53;;;;;;;4.55;100.00;97499.13;5061372;28;20397;-62
2024/03/20 04:01:07;;;;;;;10.40;7.53;;;;;;;4.48;100.00;97503.69;5048258;28;20512;-62
2024/03/20 04:03:32;;;;;;;11.90;8.25;;;;;;;4.39;100.00;97503.06;5049653;28;20037;-61
2024/03/20 04:05:59;;;;;;;13.38;8.02;;;;;;;4.38;100.00;97495.22;5056760;28;20679;-62
2024/03/20 04:08:25;;;;;;;11.60;7.68;;;;;;;4.34;100.00;97497.50;5058653;28;20093;-61
2024/03/20 04:10:50;;;;;;;11.20;7.43;;;;;;;4.29;100.00;97500.84;5054017;28;20177;-62
2024/03/20 04:13:16;;;;;;;15.07;7.65;;;;;;;4.28;100.00;97501.03;5053106;28;20033;-62
2024/03/20 04:15:43;;;;;;;12.70;7.15;;;;;;;4.32;100.00;97506.78;5048436;28;20045;-63
2024/03/20 04:18:09;;;;;;;13.50;7.35;;;;;;;4.33;100.00;97505.75;5049175;28;20066;-62
2024/03/20 04:20:34;;;;;;;9.68;6.68;;;;;;;4.37;100.00;97507.81;5061613;28;20048;-62
2024/03/20 04:23:02;;;;;;;13.82;7.53;;;;;;;4.33;100.00;97509.28;5059291;28;20408;-62
2024/03/20 04:25:28;;;;;;;11.68;7.22;;;;;;;4.44;100.00;97515.84;5058646;28;20037;-62
2024/03/20 04:27:55;;;;;;;9.75;6.82;;;;;;;4.43;100.00;97514.22;5051863;28;20416;-63
2024/03/20 04:30:21;;;;;;;10.70;7.22;;;;;;;4.21;100.00;97502.88;5048503;28;20045;-62
2024/03/20 04:32:50;;;;;;;8.70;6.15;;;;;;;4.20;100.00;97507.41;5057089;28;20665;-61
2024/03/20 04:35:16;;;;;;;9.82;6.25;;;;;;;4.28;100.00;97517.94;5051728;28;20504;-64
2024/03/20 04:37:42;;;;;;;10.43;6.55;;;;;;;4.19;100.00;97510.28;5056297;28;20040;-61
2024/03/20 04:40:09;;;;;;;10.52;6.85;;;;;;;3.98;100.00;97507.63;5046970;28;20403;-63
2024/03/20 04:42:34;;;;;;;21.90;7.78;;;;;;;4.16;100.00;97507.00;5053559;28;20029;-63
2024/03/20 04:45:00;;;;;;;11.68;6.10;;;;;;;3.95;100.00;97507.22;5050787;28;20500;-63
2024/03/20 04:47:26;;;;;;;13.13;6.25;;;;;;;4.02;100.00;97510.75;5050082;28;20115;-63
2024/03/20 04:49:52;;;;;;;10.43;6.80;;;;;;;4.06;100.00;97519.19;5055176;28;20562;-63
2024/03/20 04:52:18;;;;;;;13.10;6.85;;;;;;;4.11;100.00;97516.69;5059650;28;20029;-62
2024/03/20 04:54:44;;;;;;;13.57;6.88;;;;;;;4.11;100.00;97517.53;5052534;28;20091;-61
2024/03/20 04:57:09;;;;;;;12.35;7.22;;;;;;;4.18;100.00;97516.69;5050883;28;20123;-62
2024/03/20 04:59:35;;;;;;;9.20;6.32;;;;;;;4.20;100.00;97512.78;5060582;28;20037;-64
2024/03/20 05:02:02;;;;;;;10.18;6.10;;;;;;;4.23;100.00;97517.72;5052486;28;20048;-62
2024/03/20 05:04:28;;;;;;;10.68;6.35;;;;;;;4.32;100.00;97522.88;5054896;28;20048;-60
2024/03/20 05:06:54;;;;;;;9.88;6.10;;;;;;;4.28;100.00;97515.25;5064850;28;20048;-62
2024/03/20 05:09:19;;;;;;;10.93;6.93;;;;;;;4.30;100.00;97515.03;5053495;28;20041;-63
2024/03/20 05:11:45;;;;;;;11.55;6.22;;;;;;;4.45;100.00;97522.06;5060614;28;20086;-63
2024/03/20 05:14:11;;;;;;;9.45;6.45;;;;;;;4.56;100.00;97510.66;5055983;28;20047;-63
2024/03/20 05:16:36;;;;;;;12.70;6.72;;;;;;;4.62;100.00;97517.06;5053083;28;20044;-63
2024/03/20 05:19:02;;;;;;;9.82;6.47;;;;;;;4.60;100.00;97511.91;5061603;28;20032;-62
2024/03/20 05:21:28;;;;;;;10.73;6.25;;;;;;;4.69;100.00;97512.50;5042926;28;20586;-62
2024/03/20 05:23:54;;;;;;;11.80;6.00;;;;;;;4.78;100.00;97508.56;5057315;28;20048;-62
2024/03/20 05:26:20;;;;;;;7.15;5.63;;;;;;;4.64;100.00;97501.59;5049567;28;20048;-62
2024/03/20 05:28:46;;;;;;;11.23;6.40;;;;;;;4.62;100.00;97509.00;5056387;28;20055;-62
2024/03/20 05:31:26;;;;;;;8.68;5.50;;;;;;;4.66;100.00;97499.50;5052930;28;20121;-63
2024/03/20 05:33:51;;;;;;;8.40;5.70;;;;;;;4.74;100.00;97501.97;5056413;28;20051;-63
2024/03/20 05:36:17;;;;;;;8.90;5.60;;;;;;;4.76;100.00;97507.94;5050028;28;20041;-62
2024/03/20 05:38:42;;;;;;;8.85;5.60;;;;;;;4.72;100.00;97501.34;5054869;28;20044;-62
2024/03/20 05:41:08;;;;;;;10.40;6.07;;;;;;;4.72;100.00;97517.44;5055320;28;20039;-61
2024/03/20 05:43:34;;;;;;;9.15;5.72;;;;;;;4.65;100.00;97513.97;5051875;28;20743;-63
2024/03/20 05:45:59;;;;;;;10.35;6.28;;;;;;;4.65;100.00;97522.00;5057312;28;20450;-62
2024/03/20 05:48:25;;;;;;;10.45;6.50;;;;;;;4.65;100.00;97520.13;5060628;28;20049;-61
2024/03/20 05:50:50;;;;;;;11.38;5.95;;;;;;;4.68;100.00;97524.25;5050230;28;20082;-62
2024/03/20 05:53:16;;;;;;;12.68;7.43;;;;;;;4.73;100.00;97526.31;5051489;28;20033;-63
2024/03/20 05:55:42;;;;;;;10.40;6.57;;;;;;;4.91;100.00;97523.78;5060421;28;20661;-65
2024/03/20 05:58:07;;;;;;;10.05;6.38;;;;;;;5.10;100.00;97518.56;5048369;28;20042;-64
2024/03/20 06:00:33;;;;;;;10.32;5.75;;;;;;;5.19;100.00;97525.34;5053681;28;20118;-63
2024/03/20 06:02:59;;;;;;;9.30;5.47;;;;;;;5.23;100.00;97523.03;5051749;28;20040;-64
2024/03/20 06:05:24;;;;;;;9.80;5.60;;;;;;;5.20;100.00;97515.44;5051643;28;20047;-65
2024/03/20 06:07:50;;;;;;;10.57;6.55;;;;;;;5.25;100.00;97520.97;5057829;28;20037;-65
2024/03/20 06:10:16;;;;;;;8.80;6.03;;;;;;;5.30;100.00;97523.00;5047114;28;20091;-64
2024/03/20 06:12:42;;;;;;;9.85;6.82;;;;;;;5.34;100.00;97524.22;5052893;28;20037;-63
2024/03/20 06:15:08;;;;;;;11.05;6.70;;;;;;;5.45;100.00;97520.03;5057689;28;20449;-64
2024/03/20 06:17:34;;;;;;;12.43;8.25;;;;;;;5.43;100.00;97525.66;5045809;28;20520;-64
2024/03/20 06:20:00;;;;;;;20.25;7.15;;;;;;;5.42;100.00;97521.28;5056082;28;20051;-65
2024/03/20 06:22:26;;;;;;;10.80;6.93;;;;;;;5.40;100.00;97519.84;5050512;28;20072;-64
2024/03/20 06:24:52;;;;;;;11.38;6.80;;;;;;;5.43;100.00;97520.28;5057464;28;20043;-63
2024/03/20 06:27:18;;;;;;;10.18;6.28;;;;;;;5.42;100.00;97525.84;5051648;28;20079;-64
2024/03/20 06:29:48;;;;;;;11.30;6.90;;;;;;;5.50;100.00;97528.28;5038815;28;20053;-61
2024/03/20 06:32:13;;;;;;;10.10;6.38;;;;;;;5.55;100.00;97531.16;5053548;28;20067;-61
2024/03/20 06:34:39;;;;;;;13.68;7.00;;;;;;;5.63;100.00;97531.94;5059364;28;20724;-62
2024/03/20 06:37:07;;;;;;;12.63;7.28;;;;;;;5.69;100.00;97536.44;5062588;28;20096;-62
2024/03/20 06:39:32;;;;;;;11.32;6.45;;;;;;;5.81;100.00;97526.66;5046031;28;20389;-61
2024/03/20 06:41:58;;;;;;;12.32;6.22;;;;;;;5.98;100.00;97531.50;5052104;28;20063;-63
2024/03/20 06:44:23;;;;;;;9.52;5.90;;;;;;;6.14;100.00;97534.69;5040564;28;20132;-61
2024/03/20 06:46:49;;;;;;;10.10;6.80;;;;;;;6.25;100.00;97534.00;5050777;28;20044;-62
2024/03/20 06:49:15;;;;;;;9.75;5.72;;;;;;;6.31;100.00;97534.97;5057440;28;20040;-63
2024/03/20 06:51:42;;;;;;;12.70;5.93;;;;;;;6.38;100.00;97536.56;5050757;28;20775;-64
2024/03/20 06:54:16;;;;;;;11.20;5.97;;;;;;;6.53;100.00;97540.78;5058287;28;20041;-61
2024/03/20 06:56:48;;;;;;;11.40;5.82;;;;;;;6.64;100.00;97548.13;5054087;28;20040;-62
2024/03/20 06:59:16;;;;;;;;;;;;;;;6.76;100.00;97542.00;5056418;28;20071;-62
2024/03/20 07:01:42;;;;;;;8.32;5.55;;;;;;;6.87;100.00;97543.97;5052014;28;19981;-63
2024/03/20 07:04:07;;;;;;;9.05;5.85;;;;;;;7.00;100.00;97550.22;5060897;28;20449;-62
2024/03/20 07:06:33;;;;;;;8.07;5.20;;;;;;;7.16;100.00;97555.00;5050112;28;20060;-63
2024/03/20 07:08:58;;;;;;;9.25;5.60;;;;;;;7.26;100.00;97557.19;5060929;28;20044;-62
2024/03/20 07:11:24;;;;;;;9.40;5.22;;;;;;;7.38;100.00;97549.16;5051564;28;20048;-61
2024/03/20 07:13:49;;;;;;;10.05;5.22;;;;;;;7.50;100.00;97556.47;5054011;28;20036;-66
2024/03/20 07:16:15;;;;;;;8.68;5.20;;;;;;;7.61;100.00;97552.19;5055084;28;20710;-65
2024/03/20 07:18:41;;;;;;;9.07;5.30;;;;;;;7.74;100.00;97554.69;5053648;28;20090;-65
2024/03/20 07:21:07;;;;;;;7.72;4.55;;;;;;;7.90;100.00;97558.63;5060313;28;20601;-65
2024/03/20 07:23:32;;;;;;;7.45;4.28;;;;;;;8.03;100.00;97557.59;5046903;28;20107;-65
2024/03/20 07:25:58;;;;;;;9.00;4.68;;;;;;;8.18;100.00;97551.78;5048237;28;20051;-66
2024/03/20 07:28:23;;;;;;;9.25;4.63;;;;;;;8.35;100.00;97564.59;5048102;28;20045;-64
2024/03/20 07:30:50;;;;;;;7.40;4.25;;;;;;;8.53;100.00;97562.88;5060842;28;20043;-65
2024/03/20 07:33:15;;;;;;;6.53;4.30;;;;;;;8.70;100.00;97560.31;5059180;28;20055;-65
2024/03/20 07:35:44;;;;;;;6.50;4.00;;;;;;;8.86;100.00;97566.88;5061326;28;20546;-65
2024/03/20 07:38:10;;;;;;;6.32;3.55;;;;;;;8.98;100.00;97566.84;5051405;28;20040;-65
2024/03/20 07:40:36;;;;;;;8.68;3.67;;;;;;;9.09;100.00;97567.88;5052545;28;20048;-65
2024/03/20 07:43:01;;;;;;;6.30;3.67;;;;;;;9.22;100.00;97561.41;5065901;28;20032;-65
2024/03/20 07:45:27;;;;;;;5.18;3.38;;;;;;;9.28;100.00;97565.84;5052499;28;20519;-65
2024/03/20 07:47:54;;;;;;;7.07;3.42;;;;;;;9.42;100.00;97577.22;5065905;28;20443;-65
2024/03/20 07:50:19;;;;;;;8.38;3.15;;;;;;;9.57;100.00;97567.75;5052052;28;20098;-65
2024/03/20 07:52:47;;;;;;;5.28;2.95;;;;;;;9.70;100.00;97567.47;5052265;28;20139;-65
2024/03/20 07:55:13;;;;;;;4.15;2.25;;;;;;;9.82;100.00;97569.31;5037302;28;20081;-65
2024/03/20 07:57:38;;;;;;;7.05;3.38;;;;;;;9.95;100.00;97571.72;5052139;28;20044;-64
2024/03/20 08:00:08;;;;;;;5.65;2.60;;;;;;;10.06;100.00;97574.63;5054319;28;20048;-65
2024/03/20 08:02:36;;;;;;;4.28;2.47;;;;;;;10.26;100.00;97574.16;5054615;28;20040;-66
2024/03/20 08:05:02;;;;;;;4.22;2.40;;;;;;;10.46;100.00;97575.59;5052285;28;20139;-65
2024/03/20 08:07:27;;;;;;;5.25;2.35;;;;;;;10.58;100.00;97576.31;5052480;28;20123;-66
2024/03/20 08:09:54;;;;;;;4.82;2.05;;;;;;;10.74;100.00;97576.53;5052175;28;20543;-65
2024/03/20 08:12:19;;;;;;;6.13;2.78;;;;;;;10.92;100.00;97578.97;5047854;28;20040;-66
2024/03/20 08:14:45;;;;;;;4.63;2.72;;;;;;;11.08;100.00;97576.47;5052207;28;20414;-66
2024/03/20 08:17:10;;;;;;;4.93;2.40;;;;;;;11.18;100.00;97573.91;5060281;28;20070;-66
2024/03/20 08:19:36;;;;;;;4.43;2.22;;;;;;;11.31;100.00;97572.72;5055258;28;20041;-66
2024/03/20 08:22:02;;;;;;;4.03;2.15;;;;;;;11.47;100.00;97570.22;5058784;28;20492;-66
2024/03/20 08:24:27;;;;;;;5.40;2.08;;;;;;;11.64;100.00;97569.31;5050312;28;20075;-67
2024/03/20 08:26:53;;;;;;;3.70;1.92;;;;;;;11.79;100.00;97563.25;5063341;28;20291;-66
2024/03/20 08:29:18;;;;;;;3.38;1.83;;;;;;;11.94;100.00;97568.00;5059614;28;20056;-67
2024/03/20 08:31:44;;;;;;;3.72;1.98;;;;;;;12.03;100.00;97571.06;5060846;28;20037;-66
2024/03/20 08:34:09;;;;;;;3.30;1.60;;;;;;;12.06;100.00;97570.59;5051531;28;20041;-66
2024/03/20 08:36:35;;;;;;;3.83;2.10;;;;;;;12.13;100.00;97568.50;5052628;28;20043;-66
2024/03/20 08:39:01;;;;;;;4.50;1.73;;;;;;;12.21;100.00;97564.47;5063952;28;20122;-66
2024/03/20 08:41:26;;;;;;;3.42;1.63;;;;;;;12.25;100.00;97570.19;5056568;28;20037;-66
2024/03/20 08:43:52;;;;;;;2.53;1.40;;;;;;;12.36;100.00;97575.47;5050182;28;20608;-66
2024/03/20 08:46:19;;;;;;;3.85;1.58;;;;;;;12.47;100.00;97567.41;5056844;28;20039;-66
2024/03/20 08:48:45;;;;;;;4.53;1.70;;;;;;;12.48;100.00;97572.59;5070190;28;20048;-66
2024/03/20 08:51:10;;;;;;;2.63;1.40;;;;;;;12.57;100.00;97570.19;5059552;28;20040;-66
2024/03/20 08:53:36;;;;;;;2.75;1.50;;;;;;;12.58;100.00;97568.31;5056627;28;20049;-65
2024/03/20 08:56:02;;;;;;;2.45;1.48;;;;;;;12.57;100.00;97569.41;5053166;28;20511;-66
2024/03/20 08:58:28;;;;;;;3.47;1.45;;;;;;;12.58;100.00;97573.75;5056469;28;20039;-65
2024/03/20 09:00:54;;;;;;;3.75;1.40;;;;;;;12.64;100.00;97566.44;5058375;28;22249;-65
2024/03/20 09:03:23;;;;;;;3.35;1.35;;;;;;;12.76;100.00;97572.53;5061498;28;20037;-65
2024/03/20 09:05:48;;;;;;;2.83;1.30;;;;;;;12.86;100.00;97580.72;5059844;28;20047;-65
2024/03/20 09:08:14;;;;;;;3.55;1.48;;;;;;;12.97;100.00;97575.38;5051741;28;20033;-65
2024/03/20 09:10:39;;;;;;;2.40;1.15;;;;;;;13.05;100.00;97574.84;5055928;28;20518;-65
2024/03/20 09:13:05;;;;;;;2.58;1.42;;;;;;;13.13;100.00;97577.06;5057698;28;20490;-65
2024/03/20 09:15:30;;;;;;;3.88;1.60;;;;;;;13.22;99.57;97573.84;5058333;28;20049;-65
2024/03/20 09:17:56;;;;;;;2.95;1.40;;;;;;;13.30;100.00;97576.06;5062459;28;20036;-64
2024/03/20 09:20:25;;;;;;;2.97;1.60;;;;;;;13.40;100.00;97576.13;5047113;28;20067;-65
2024/03/20 09:22:52;;;;;;;2.28;1.27;;;;;;;13.53;99.25;97568.59;5059551;28;20098;-65
2024/03/20 09:25:19;;;;;;;6.25;1.50;;;;;;;13.63;100.00;97573.22;5065124;28;20040;-64
2024/03/20 09:27:45;;;;;;;4.28;1.85;;;;;;;13.67;100.00;97568.91;5059126;28;20050;-65
2024/03/20 09:30:15;;;;;;;3.53;1.80;;;;;;;13.89;100.00;97570.59;5055942;28;20036;-65
2024/03/20 09:32:45;;;;;;;3.00;1.60;;;;;;;13.98;100.00;97566.28;5055752;28;20067;-65
2024/03/20 09:35:15;;;;;;;3.72;1.85;;;;;;;14.07;98.93;97568.47;5055292;28;20146;-65
2024/03/20 09:37:41;;;;;;;4.78;2.05;;;;;;;14.09;97.66;97560.81;5064804;28;20048;-65
2024/03/20 09:40:10;;;;;;;3.80;1.50;;;;;;;14.18;99.26;97565.47;5052637;28;20047;-64
2024/03/20 09:42:39;;;;;;;3.53;1.75;;;;;;;14.29;97.37;97571.75;5056986;28;20037;-65
2024/03/20 09:45:08;;;;;;;8.35;2.28;;;;;;;14.31;92.49;97576.94;5063615;28;20035;-65
2024/03/20 09:47:35;;;;;;;4.60;1.50;;;;;;;14.37;90.48;97570.38;5054207;28;20044;-65
2024/03/20 09:50:01;;;;;;;3.22;1.05;;;;;;;14.43;86.27;97573.94;5063237;28;20043;-65
2024/03/20 09:52:29;;;;;;;2.33;1.17;;;;;;;14.43;87.55;97563.03;5051919;28;20041;-65
2024/03/20 09:54:55;;;;;;;2.55;1.02;;;;;;;14.61;88.71;97567.13;5056892;28;20090;-65
2024/03/20 09:57:24;;;;;;;4.20;1.20;;;;;;;14.72;84.97;97573.38;5058084;28;20036;-65
2024/03/20 09:59:52;;;;;;;2.58;1.10;;;;;;;14.86;79.92;97565.50;5055510;28;20039;-64
2024/03/20 10:02:18;;;;;;;2.25;1.40;;;;;;;14.94;77.69;97564.09;5056321;28;20032;-65
2024/03/20 10:04:44;;;;;;;4.65;1.50;;;;;;;14.69;74.80;97557.56;5061118;28;20063;-64
2024/03/20 10:07:15;;;;;;;1.92;0.90;;;;;;;14.83;74.87;97566.03;5060703;28;20036;-65
2024/03/20 10:09:47;;;;;;;3.15;1.35;;;;;;;14.92;71.07;97569.00;5051632;28;20048;-65
2024/03/20 10:12:15;;;;;;;2.15;1.00;;;;;;;14.90;71.57;97565.75;5056142;28;20082;-65
2024/03/20 10:14:41;;;;;;;2.35;1.20;;;;;;;14.92;72.62;97564.38;5059474;28;20037;-65
2024/03/20 10:17:14;;;;;;;2.38;1.00;;;;;;;15.03;69.90;97575.25;5062007;28;20040;-66
2024/03/20 10:19:41;;;;;;;2.35;0.98;;;;;;;15.02;72.12;97563.53;5057362;28;20036;-64
2024/03/20 10:22:07;;;;;;;2.22;1.10;;;;;;;15.11;70.90;97558.31;5063543;28;20082;-65
2024/03/20 10:24:33;;;;;;;3.67;1.45;;;;;;;14.90;69.87;97565.75;5059399;28;20096;-65
2024/03/20 10:27:01;;;;;;;4.50;1.13;;;;;;;15.00;69.66;97556.72;5064196;28;20392;-65
2024/03/20 10:29:29;;;;;;;3.03;1.65;;;;;;;15.21;73.47;97560.22;5050165;28;20056;-65
2024/03/20 10:31:57;;;;;;;2.78;1.33;;;;;;;15.33;70.49;97555.25;5048234;28;20071;-65
2024/03/20 10:34:24;;;;;;;2.47;1.20;;;;;;;15.53;72.06;97560.91;5058164;28;20050;-64
2024/03/20 10:36:50;;;;;;;3.83;1.33;;;;;;;15.67;68.36;97555.66;5054839;28;20044;-64
2024/03/20 10:39:23;;;;;;;5.53;1.23;;;;;;;15.82;69.45;97558.28;5059663;28;20028;-64
2024/03/20 10:41:50;;;;;;;2.55;1.23;;;;;;;15.96;70.02;97553.06;5056448;28;20040;-65
2024/03/20 10:44:18;;;;;;;4.90;1.90;;;;;;;16.12;68.06;97552.97;5047753;28;20079;-64
2024/03/20 10:46:51;;;;;;;1.75;0.98;;;;;;;16.30;69.50;97551.47;5058297;28;20064;-65
2024/03/20 10:49:19;;;;;;;2.78;1.25;;;;;;;16.40;64.92;97547.81;5051547;28;20041;-66
2024/03/20 10:51:46;;;;;;;1.90;1.05;;;;;;;16.61;64.21;97547.66;5057578;28;20114;-64
2024/03/20 10:54:12;;;;;;;3.17;0.95;;;;;;;16.59;62.68;97545.19;5048799;28;20045;-65
2024/03/20 10:56:56;;;;;;;2.58;1.10;;;;;;;16.76;61.62;97550.25;5048644;28;21251;-65
2024/03/20 10:59:23;;;;;;;2.03;1.10;;;;;;;16.66;57.20;97550.34;5044136;28;20079;-66
2024/03/20 11:01:57;;;;;;;3.78;1.10;;;;;;;16.69;59.79;97541.56;5049075;28;20614;-66
2024/03/20 11:04:42;;;;;;;7.00;2.58;;;;;;;16.95;60.18;97535.84;5045465;28;20075;-66
2024/03/20 11:07:28;;;;;;;5.80;2.13;;;;;;;16.86;69.67;97538.41;5047920;28;20056;-65
2024/03/20 11:09:57;;;;;;;4.15;1.73;;;;;;;16.77;64.71;97546.41;5050923;28;20039;-65
2024/03/20 11:12:30;;;;;;;7.18;2.00;;;;;;;16.90;65.13;97539.47;5049663;28;20190;-65
2024/03/20 11:15:00;;;;;;;5.97;2.47;;;;;;;16.76;69.31;97533.03;5046695;28;20056;-65
2024/03/20 11:17:26;;;;;;;4.50;2.28;;;;;;;16.96;70.22;97532.03;5049936;28;20599;-66
2024/03/20 11:19:52;;;;;;;4.30;2.63;;;;;;;16.84;67.40;97540.59;5048417;28;20047;-66
2024/03/20 11:22:22;;;;;;;5.70;2.65;;;;;;;16.57;70.04;97539.22;5053708;28;20045;-65
2024/03/20 11:24:53;;;;;;;6.43;2.60;;;;;;;16.49;70.64;97540.66;5054361;28;20044;-66
2024/03/20 11:27:22;;;;;;;5.15;2.60;;;;;;;16.60;70.71;97537.81;5055201;28;20075;-65